»·PEaware :: N6182G KPSP-KLAX

N6182G :: KPSP-KLAX

FLIGHT INFORMATION

Flight Status: Arrived
Operator: Privately registered:
United States
More flights under this callsign
Pilot: Paul A. (20189)
Aircraft: CESSNA 182 SKYLANE
(C182)
More flights by this aircraft type
Origin: KPSP Palm Springs Intl
United States
Destination: KLAX Los Angeles Intl
United States
More flights between these airports :: More routes between these airports
Route: +CATH1 PSP V388 PDZ LAHAB
File this flight plan on PilotEdge
Remarks:
Altitude:
(Current/Filed)
10,000ft
Speed:
(Current/Filed)
120kts
Departed: 05-Oct-18 05:17 PM
Arrived: 05-Oct-18 06:20 PM
Distance/Time
Traveled:
94nm/1:03
Distance/Time
To Go:
Arrived

Flight Plot

Page will automatically refresh every two minutes.

Flight plan parsing failed; only flown route is shown


Map Options




Map Legend


Flown Route
Filed Route
Departure Airport
Arrival Airport
Navaid (VOR, NDB)
Fix

Horizontal Profiles

Position Reports

Time Latitude Longitude Heading Altitude Ground
Speed
05-Oct-18 17:03 33.823075 -116.498072 53 480ft 0kts
05-Oct-18 17:04 33.823075 -116.498071 53 480ft 0kts
05-Oct-18 17:05 33.823076 -116.498070 53 480ft 0kts
05-Oct-18 17:06 33.823076 -116.498069 53 480ft 0kts
05-Oct-18 17:07 33.823077 -116.498068 53 480ft 0kts
05-Oct-18 17:08 33.823078 -116.498067 53 480ft 0kts
05-Oct-18 17:09 33.823078 -116.498066 53 480ft 0kts
05-Oct-18 17:10 33.823079 -116.498065 53 480ft 0kts
05-Oct-18 17:11 33.823080 -116.498064 53 480ft 0kts
05-Oct-18 17:12 33.823080 -116.498062 53 480ft 0kts
05-Oct-18 17:13 33.823081 -116.498061 53 480ft 0kts
05-Oct-18 17:14 33.823082 -116.498060 53 480ft 0kts
05-Oct-18 17:15 33.824631 -116.499229 294 480ft 3kts
05-Oct-18 17:16 33.824593 -116.499592 231 480ft 0kts
05-Oct-18 17:17 33.824592 -116.499593 231 480ft 0kts
05-Oct-18 17:18 33.824514 -116.500205 323 480ft 7kts
05-Oct-18 17:19 33.839937 -116.513996 319 1203ft 86kts
05-Oct-18 17:20 33.862563 -116.533010 321 1999ft 104kts
05-Oct-18 17:21 33.886120 -116.555336 322 3003ft 107kts
05-Oct-18 17:22 33.905829 -116.544023 100 3967ft 118kts
05-Oct-18 17:23 33.894385 -116.507965 105 4977ft 112kts
05-Oct-18 17:24 33.883688 -116.473706 103 5942ft 106kts
05-Oct-18 17:25 33.873409 -116.440345 103 6836ft 105kts
05-Oct-18 17:26 33.861213 -116.408773 111 7675ft 103kts
05-Oct-18 17:27 33.847689 -116.376952 111 8314ft 112kts
05-Oct-18 17:28 33.832795 -116.342028 112 8841ft 120kts
05-Oct-18 17:29 33.822779 -116.305402 52 9306ft 111kts
05-Oct-18 17:30 33.841291 -116.316535 288 9805ft 105kts
05-Oct-18 17:31 33.848998 -116.352190 294 10018ft 122kts
05-Oct-18 17:32 33.860230 -116.393005 292 10018ft 132kts
05-Oct-18 17:33 33.871054 -116.433768 292 10002ft 126kts
05-Oct-18 17:34 33.881448 -116.474668 292 10010ft 129kts
05-Oct-18 17:35 33.892135 -116.516639 291 10008ft 132kts
05-Oct-18 17:36 33.902931 -116.559076 291 10010ft 132kts
05-Oct-18 17:37 33.913710 -116.601646 291 10023ft 132kts
05-Oct-18 17:38 33.924486 -116.644144 291 10045ft 133kts
05-Oct-18 17:39 33.935300 -116.686956 291 10066ft 133kts
05-Oct-18 17:40 33.946162 -116.729977 291 10089ft 135kts
05-Oct-18 17:41 33.947576 -116.775736 272 10110ft 138kts
05-Oct-18 17:42 33.946006 -116.822705 272 10017ft 143kts
05-Oct-18 17:43 33.944302 -116.870207 272 10003ft 141kts
05-Oct-18 17:44 33.942657 -116.917430 272 10005ft 140kts
05-Oct-18 17:45 33.941012 -116.964629 272 10003ft 141kts
05-Oct-18 17:46 33.939345 -117.011824 272 10000ft 141kts
05-Oct-18 17:47 33.937666 -117.059240 272 9714ft 147kts
05-Oct-18 17:48 33.935801 -117.109116 271 8997ft 137kts
05-Oct-18 17:49 33.934198 -117.153684 271 8984ft 130kts
05-Oct-18 17:50 33.932431 -117.197116 270 8984ft 130kts
05-Oct-18 17:51 33.930454 -117.243208 270 8987ft 142kts
05-Oct-18 17:52 33.928361 -117.292088 270 8642ft 150kts
05-Oct-18 17:53 33.926218 -117.339715 271 7798ft 140kts
05-Oct-18 17:54 33.924225 -117.386328 271 7147ft 137kts
05-Oct-18 17:55 33.922428 -117.431801 272 6643ft 133kts
05-Oct-18 17:56 33.920635 -117.476424 271 6146ft 134kts
05-Oct-18 17:57 33.918797 -117.520446 271 5974ft 130kts
05-Oct-18 17:58 33.919474 -117.564409 277 5971ft 132kts
05-Oct-18 17:59 33.922639 -117.608433 280 5970ft 132kts
05-Oct-18 18:00 33.926322 -117.650946 280 5972ft 132kts
05-Oct-18 18:01 33.930022 -117.693478 279 5974ft 132kts
05-Oct-18 18:02 33.933767 -117.737459 280 6001ft 132kts
05-Oct-18 18:03 33.939372 -117.780857 287 5998ft 130kts
05-Oct-18 18:04 33.947553 -117.823744 287 5885ft 133kts
05-Oct-18 18:05 33.956655 -117.866418 288 5047ft 129kts
05-Oct-18 18:06 33.966871 -117.907426 287 4253ft 127kts
05-Oct-18 18:07 33.977400 -117.944911 287 3994ft 124kts
05-Oct-18 18:08 33.988136 -117.983434 286 4000ft 118kts
05-Oct-18 18:09 33.997165 -118.021563 268 3993ft 118kts
05-Oct-18 18:10 33.978657 -118.053442 217 3984ft 115kts
05-Oct-18 18:11 33.968266 -118.086366 264 3997ft 114kts
05-Oct-18 18:12 33.964480 -118.122263 261 3610ft 113kts
05-Oct-18 18:13 33.960811 -118.156114 261 3328ft 106kts
05-Oct-18 18:14 33.957467 -118.191702 258 2700ft 101kts
05-Oct-18 18:15 33.953338 -118.224407 263 2146ft 98kts
05-Oct-18 18:16 33.950085 -118.254248 258 1553ft 81kts
05-Oct-18 18:17 33.946709 -118.282500 263 1603ft 85kts
05-Oct-18 18:18 33.943473 -118.312961 258 1403ft 78kts
05-Oct-18 18:19 33.941501 -118.339676 263 961ft 82kts
05-Oct-18 18:20 33.939121 -118.364415 259 465ft 64kts
05-Oct-18 18:21 33.937137 -118.384517 260 157ft 58kts
05-Oct-18 18:22 33.935686 -118.390834 142 129ft 2kts
05-Oct-18 18:23 33.935098 -118.392780 262 129ft 18kts
05-Oct-18 18:24 33.934645 -118.397255 262 129ft 10kts
05-Oct-18 18:25 33.933117 -118.398790 220 129ft 0kts
05-Oct-18 18:26 33.933117 -118.398790 220 129ft 0kts
05-Oct-18 18:27 33.933117 -118.398790 220 129ft 0kts
05-Oct-18 18:28 33.933117 -118.398790 220 129ft 0kts
05-Oct-18 18:29 33.933117 -118.398790 220 129ft 0kts
05-Oct-18 18:30 33.933117 -118.398790 220 129ft 0kts
05-Oct-18 18:31 33.933117 -118.398790 220 129ft 0kts
05-Oct-18 18:32 33.933117 -118.398790 220 129ft 0kts
05-Oct-18 18:33 33.933117 -118.398790 220 129ft 0kts
05-Oct-18 18:34 33.933117 -118.398790 220 129ft 0kts
05-Oct-18 18:35 33.933117 -118.398790 220 129ft 0kts

Navigation Log

Ident Type
Flight plan parsing failed, navigation log unavailable